createdAt,value
2022-10-14T00:02:18.131Z,68.17
2022-10-14T00:04:46.724Z,68.17
2022-10-14T00:07:15.321Z,68.14
2022-10-14T00:09:43.941Z,68.14
2022-10-14T00:12:15.579Z,68.24
2022-10-14T00:14:44.195Z,68.13
2022-10-14T00:17:12.748Z,68.28
2022-10-14T00:19:41.323Z,68.20
2022-10-14T00:22:09.956Z,68.24
2022-10-14T00:24:38.900Z,68.03
2022-10-14T00:27:07.581Z,68.06
2022-10-14T00:29:36.239Z,68.29
2022-10-14T00:32:05.271Z,68.18
2022-10-14T00:34:34.060Z,68.17
2022-10-14T00:37:04.004Z,68.27
2022-10-14T00:39:32.578Z,68.27
2022-10-14T00:42:01.344Z,68.28
2022-10-14T00:45:01.873Z,68.25
2022-10-14T00:47:31.092Z,68.31
2022-10-14T00:50:01.099Z,68.36
2022-10-14T00:52:31.480Z,68.36
2022-10-14T00:55:04.971Z,68.51
2022-10-14T00:57:35.053Z,68.44
2022-10-14T01:00:07.943Z,68.54
2022-10-14T01:02:36.829Z,68.43
2022-10-14T01:05:08.187Z,68.50
2022-10-14T01:07:46.243Z,68.54
2022-10-14T01:10:24.377Z,68.49
2022-10-14T01:13:03.242Z,68.65
2022-10-14T01:15:41.037Z,68.54
2022-10-14T01:18:20.822Z,68.81
2022-10-14T01:21:06.740Z,68.69
2022-10-14T01:24:10.012Z,68.85
2022-10-14T01:27:04.935Z,68.94
2022-10-14T01:30:11.204Z,69.14
2022-10-14T01:32:50.326Z,69.00
2022-10-14T01:35:29.007Z,69.21
2022-10-14T01:38:01.642Z,69.18
2022-10-14T01:40:37.278Z,69.45
2022-10-14T01:43:07.735Z,69.45
2022-10-14T01:45:41.246Z,69.62
2022-10-14T01:48:16.962Z,69.61
2022-10-14T01:50:49.974Z,69.72
2022-10-14T01:53:23.461Z,69.77
2022-10-14T01:55:55.011Z,69.97
2022-10-14T01:58:27.868Z,69.85
2022-10-14T02:00:57.431Z,70.07
2022-10-14T02:03:26.139Z,70.05
2022-10-14T02:05:59.591Z,70.08
2022-10-14T02:08:36.745Z,70.08
2022-10-14T02:11:11.176Z,70.31
2022-10-14T02:14:00.356Z,70.31
2022-10-14T02:16:37.875Z,70.43
2022-10-14T02:19:19.575Z,70.42
2022-10-14T02:21:56.192Z,70.55
2022-10-14T02:24:33.787Z,70.65
2022-10-14T02:27:08.914Z,70.63
2022-10-14T02:29:40.831Z,70.91
2022-10-14T02:32:12.788Z,70.86
2022-10-14T02:34:44.203Z,70.90
2022-10-14T02:37:15.803Z,70.81
2022-10-14T02:39:51.547Z,71.06
2022-10-14T02:42:20.385Z,71.15
2022-10-14T02:44:55.843Z,71.28
2022-10-14T02:47:24.725Z,71.14
2022-10-14T02:49:54.249Z,71.08
2022-10-14T02:52:23.312Z,71.23
2022-10-14T02:54:54.168Z,71.32
2022-10-14T02:57:24.228Z,71.56
2022-10-14T02:59:52.838Z,71.46
2022-10-14T03:02:21.778Z,71.54
2022-10-14T03:04:50.655Z,71.61
2022-10-14T03:07:19.327Z,71.74
2022-10-14T03:09:50.525Z,71.70
2022-10-14T03:12:19.861Z,71.80
2022-10-14T03:14:49.874Z,71.85
2022-10-14T03:17:19.325Z,71.94
2022-10-14T03:19:48.220Z,71.99
2022-10-14T03:22:16.993Z,72.06
2022-10-14T03:24:46.257Z,72.04
2022-10-14T03:27:29.379Z,72.18
2022-10-14T03:30:01.682Z,72.11
2022-10-14T03:32:30.831Z,72.26
2022-10-14T03:35:19.841Z,72.19
2022-10-14T03:37:49.608Z,72.45
2022-10-14T03:40:19.861Z,72.26
2022-10-14T03:42:49.147Z,72.47
2022-10-14T03:45:17.978Z,72.48
2022-10-14T03:47:49.042Z,72.44
2022-10-14T03:50:17.872Z,72.46
2022-10-14T03:52:55.642Z,72.52
2022-10-14T03:55:33.084Z,72.82
2022-10-14T03:58:02.042Z,72.72
2022-10-14T04:00:31.277Z,72.87
2022-10-14T04:03:09.373Z,72.96
2022-10-14T04:05:40.835Z,73.02
2022-10-14T04:08:13.010Z,73.30
2022-10-14T04:10:44.107Z,73.16
2022-10-14T04:13:14.257Z,73.37
2022-10-14T04:15:43.517Z,73.51
2022-10-14T04:18:17.226Z,73.59
2022-10-14T04:20:46.183Z,73.75
2022-10-14T04:23:15.585Z,74.01
2022-10-14T04:25:45.937Z,74.00
2022-10-14T04:28:15.009Z,74.08
2022-10-14T04:30:48.494Z,74.21
2022-10-14T04:33:21.125Z,74.26
2022-10-14T04:35:51.307Z,74.37
2022-10-14T04:38:25.756Z,74.43
2022-10-14T04:40:59.180Z,74.33
2022-10-14T04:43:28.520Z,74.59
2022-10-14T04:45:57.126Z,74.60
2022-10-14T04:48:27.482Z,74.47
2022-10-14T04:50:56.472Z,74.69
2022-10-14T04:53:35.890Z,74.56
2022-10-14T04:56:15.155Z,74.84
2022-10-14T04:58:52.724Z,74.95
2022-10-14T05:01:22.264Z,75.04
2022-10-14T05:03:51.191Z,75.09
2022-10-14T05:06:20.551Z,75.02
2022-10-14T05:08:50.218Z,74.97
2022-10-14T05:11:19.104Z,74.92
2022-10-14T05:13:53.913Z,75.13
2022-10-14T05:16:22.868Z,75.25
2022-10-14T05:18:51.724Z,75.27
2022-10-14T05:21:20.461Z,75.32
2022-10-14T05:24:11.426Z,75.18
2022-10-14T05:26:40.685Z,75.28
2022-10-14T05:29:12.058Z,75.20
2022-10-14T05:31:40.921Z,75.15
2022-10-14T05:34:20.634Z,75.17
2022-10-14T05:36:49.356Z,74.99
2022-10-14T05:39:18.353Z,74.96
2022-10-14T05:41:47.291Z,74.81
2022-10-14T05:44:16.498Z,74.71
2022-10-14T05:46:46.115Z,74.69
2022-10-14T05:49:16.657Z,74.62
2022-10-14T05:51:45.728Z,74.41
2022-10-14T05:54:18.941Z,74.38
2022-10-14T05:56:49.245Z,74.18
2022-10-14T05:59:17.884Z,74.25
2022-10-14T06:01:46.627Z,74.22
2022-10-14T06:04:18.629Z,73.98
2022-10-14T06:06:47.530Z,73.93
2022-10-14T06:09:17.020Z,73.59
2022-10-14T06:11:46.277Z,73.10
2022-10-14T06:14:14.904Z,72.94
2022-10-14T06:16:43.614Z,72.33
2022-10-14T06:19:12.369Z,71.85
2022-10-14T06:21:41.024Z,71.50
2022-10-14T06:24:09.914Z,71.27
2022-10-14T06:26:38.541Z,70.97
2022-10-14T06:29:07.297Z,70.90
2022-10-14T06:31:36.032Z,70.76
2022-10-14T06:34:06.299Z,70.79
2022-10-14T06:36:36.311Z,70.90
2022-10-14T06:39:05.471Z,71.01
2022-10-14T06:41:34.371Z,71.00
2022-10-14T06:44:02.985Z,70.81
2022-10-14T06:46:31.735Z,70.47
2022-10-14T06:49:00.326Z,69.93
2022-10-14T06:51:28.996Z,69.81
2022-10-14T06:53:57.604Z,69.84
2022-10-14T06:56:26.477Z,69.67
2022-10-14T06:58:56.035Z,69.48
2022-10-14T07:01:25.045Z,69.30
2022-10-14T07:03:56.571Z,68.65
2022-10-14T07:06:26.589Z,68.37
2022-10-14T07:08:55.249Z,67.93
2022-10-14T07:11:23.855Z,67.58
2022-10-14T07:13:52.404Z,67.86
2022-10-14T07:16:21.102Z,67.81
2022-10-14T07:18:50.012Z,67.91
2022-10-14T07:21:18.662Z,68.25
2022-10-14T07:23:48.001Z,68.06
2022-10-14T07:26:16.688Z,67.72
2022-10-14T07:28:45.490Z,67.76
2022-10-14T07:31:14.187Z,67.78
2022-10-14T07:33:43.231Z,67.58
2022-10-14T07:36:17.231Z,66.56
2022-10-14T07:38:48.755Z,65.73
2022-10-14T07:41:19.147Z,65.08
2022-10-14T07:43:50.511Z,64.05
2022-10-14T07:46:28.632Z,63.74
2022-10-14T07:48:58.288Z,63.35
2022-10-14T07:51:28.186Z,63.29
2022-10-14T07:53:59.560Z,62.77
2022-10-14T07:56:28.980Z,62.21
2022-10-14T07:58:59.216Z,62.00
2022-10-14T08:01:28.086Z,61.82
2022-10-14T08:03:57.176Z,61.38
2022-10-14T08:06:26.710Z,61.08
2022-10-14T08:08:55.559Z,61.04
2022-10-14T08:11:26.502Z,60.49
2022-10-14T08:13:58.009Z,60.83
2022-10-14T08:16:28.881Z,60.16
2022-10-14T08:19:00.043Z,59.49
2022-10-14T08:21:29.462Z,59.01
2022-10-14T08:23:58.353Z,58.48
2022-10-14T08:26:30.746Z,58.27
2022-10-14T08:29:01.092Z,58.05
2022-10-14T08:31:30.525Z,57.47
2022-10-14T08:33:59.519Z,57.10
2022-10-14T08:36:31.715Z,57.37
2022-10-14T08:39:00.564Z,57.61
2022-10-14T08:41:52.193Z,57.83
2022-10-14T08:44:25.124Z,57.84
2022-10-14T08:46:56.687Z,58.04
2022-10-14T08:49:30.300Z,58.22
2022-10-14T08:52:03.298Z,58.61
2022-10-14T08:54:37.465Z,58.92
2022-10-14T08:57:12.496Z,59.22
2022-10-14T08:59:41.978Z,58.84
2022-10-14T09:02:24.515Z,58.72
2022-10-14T09:04:53.638Z,58.56
2022-10-14T09:07:22.707Z,58.28
2022-10-14T09:09:54.857Z,57.85
2022-10-14T09:12:28.214Z,57.63
2022-10-14T09:15:09.893Z,57.63
2022-10-14T09:17:48.694Z,57.80
2022-10-14T09:20:21.268Z,57.52
2022-10-14T09:23:00.656Z,57.22
2022-10-14T09:25:32.797Z,56.38
2022-10-14T09:28:01.758Z,56.16
2022-10-14T09:30:35.779Z,55.98
2022-10-14T09:33:05.552Z,56.27
2022-10-14T09:35:37.271Z,56.93
2022-10-14T09:38:06.952Z,57.33
2022-10-14T09:40:38.710Z,57.69
2022-10-14T09:43:15.691Z,57.95
2022-10-14T09:45:51.509Z,58.18
2022-10-14T09:48:31.126Z,58.41
2022-10-14T09:51:01.641Z,58.81
2022-10-14T09:53:32.791Z,58.95
2022-10-14T09:56:04.863Z,58.94
2022-10-14T09:58:39.053Z,58.93
2022-10-14T10:01:13.872Z,59.13
2022-10-14T10:03:43.667Z,59.39
2022-10-14T10:06:13.997Z,59.51
2022-10-14T10:08:56.271Z,59.64
2022-10-14T10:11:30.569Z,59.92
2022-10-14T10:13:59.316Z,60.19
2022-10-14T10:16:30.812Z,60.45
2022-10-14T10:19:27.347Z,60.54
2022-10-14T10:22:16.229Z,60.62
2022-10-14T10:24:47.613Z,60.56
2022-10-14T10:27:24.537Z,60.65
2022-10-14T10:29:55.250Z,60.75
2022-10-14T10:32:30.366Z,60.67
2022-10-14T10:35:14.749Z,60.42
2022-10-14T10:37:56.496Z,59.98
2022-10-14T10:40:48.002Z,59.49
2022-10-14T10:43:37.525Z,59.01
2022-10-14T10:46:23.811Z,58.55
2022-10-14T10:49:01.442Z,58.20
2022-10-14T10:51:38.562Z,58.07
2022-10-14T10:54:24.894Z,57.70
2022-10-14T10:56:57.488Z,57.25
2022-10-14T10:59:55.662Z,57.13
2022-10-14T11:03:02.662Z,57.12
2022-10-14T11:05:42.979Z,57.06
2022-10-14T11:08:44.589Z,56.90
2022-10-14T11:11:40.440Z,56.90
2022-10-14T11:14:22.548Z,56.68
2022-10-14T11:17:01.006Z,57.12
2022-10-14T11:19:38.427Z,56.68
2022-10-14T11:22:23.105Z,56.43
2022-10-14T11:25:02.953Z,55.84
2022-10-14T11:27:37.733Z,55.41
2022-10-14T11:30:16.295Z,55.56
2022-10-14T11:32:58.547Z,55.47
2022-10-14T11:35:37.825Z,55.73
2022-10-14T11:38:22.403Z,55.34
2022-10-14T11:41:00.465Z,55.39
2022-10-14T11:43:41.512Z,55.49
2022-10-14T11:46:13.219Z,55.11
2022-10-14T11:48:46.746Z,55.00
2022-10-14T11:51:21.615Z,55.07
2022-10-14T11:54:00.762Z,55.22
2022-10-14T11:56:45.006Z,55.46
2022-10-14T11:59:48.641Z,55.83
2022-10-14T12:02:44.521Z,56.10
2022-10-14T12:05:19.791Z,56.48
2022-10-14T12:08:00.333Z,56.75
2022-10-14T12:10:33.869Z,57.07
2022-10-14T12:13:07.385Z,57.19
2022-10-14T12:15:41.582Z,57.47
2022-10-14T12:18:12.115Z,57.47
2022-10-14T12:20:49.200Z,57.52
2022-10-14T12:23:28.925Z,57.38
2022-10-14T12:26:04.266Z,57.47
2022-10-14T12:28:37.421Z,57.42
2022-10-14T12:31:23.012Z,57.35
2022-10-14T12:34:26.217Z,57.39
2022-10-14T12:36:54.817Z,57.59
2022-10-14T12:39:31.778Z,57.51
2022-10-14T12:42:01.231Z,57.59
2022-10-14T12:44:36.077Z,57.69
2022-10-14T12:47:05.736Z,57.64
2022-10-14T12:49:36.369Z,57.50
2022-10-14T12:52:08.567Z,57.30
2022-10-14T12:54:46.194Z,57.37
2022-10-14T12:57:26.786Z,57.73
2022-10-14T12:59:57.695Z,57.82
2022-10-14T13:02:34.534Z,58.05
2022-10-14T13:05:07.105Z,58.11
2022-10-14T13:07:45.090Z,58.28
2022-10-14T13:10:49.840Z,58.43
2022-10-14T13:13:54.436Z,58.48
2022-10-14T13:17:04.675Z,58.59
2022-10-14T13:19:43.932Z,58.70
2022-10-14T13:22:43.186Z,58.88
2022-10-14T13:25:21.965Z,59.01
2022-10-14T13:28:20.406Z,59.32
2022-10-14T13:30:59.118Z,59.44
2022-10-14T13:33:38.089Z,59.69
2022-10-14T13:36:16.208Z,59.81
2022-10-14T13:38:51.791Z,60.01
2022-10-14T13:41:30.584Z,60.17
2022-10-14T13:44:01.190Z,60.25
2022-10-14T13:46:35.424Z,60.38
2022-10-14T13:49:13.342Z,60.58
2022-10-14T13:51:48.090Z,60.68
2022-10-14T13:54:20.016Z,60.75
2022-10-14T14:00:38.143Z,60.91
2022-10-14T14:02:44.527Z,61.01
2022-10-14T14:05:18.552Z,61.12
2022-10-14T14:08:59.676Z,61.21
2022-10-14T14:10:51.478Z,61.19
2022-10-14T14:13:27.558Z,61.43
2022-10-14T14:15:56.641Z,61.55
2022-10-14T14:18:43.314Z,61.74
2022-10-14T14:21:24.143Z,61.91
2022-10-14T14:23:55.176Z,61.91
2022-10-14T14:26:29.264Z,62.11
2022-10-14T14:28:58.005Z,62.14
2022-10-14T14:31:48.019Z,62.29
2022-10-14T14:34:58.594Z,62.42
2022-10-14T14:37:54.682Z,62.49
2022-10-14T14:40:21.353Z,62.72
2022-10-14T14:42:53.791Z,62.82
2022-10-14T14:45:25.305Z,62.91
2022-10-14T14:47:56.636Z,63.03
2022-10-14T14:50:32.559Z,63.14
2022-10-14T14:53:06.788Z,63.27
2022-10-14T14:55:43.108Z,63.34
2022-10-14T14:58:23.967Z,63.37
2022-10-14T15:00:54.187Z,63.45
2022-10-14T15:03:25.459Z,63.42
2022-10-14T15:05:58.026Z,63.45
2022-10-14T15:08:29.650Z,63.69
2022-10-14T15:10:59.871Z,63.61
2022-10-14T15:13:44.026Z,63.75
2022-10-14T15:16:33.425Z,63.94
2022-10-14T15:19:30.202Z,64.12
2022-10-14T15:22:24.083Z,64.16
2022-10-14T15:25:05.755Z,64.07
2022-10-14T15:27:46.690Z,64.18
2022-10-14T15:30:26.522Z,64.28
2022-10-14T15:32:57.944Z,64.28
2022-10-14T15:35:27.402Z,64.45
2022-10-14T15:37:56.485Z,64.43
2022-10-14T15:40:28.983Z,64.51
2022-10-14T15:42:58.320Z,64.46
2022-10-14T15:45:27.024Z,64.59
2022-10-14T15:48:05.453Z,64.58
2022-10-14T15:50:38.766Z,64.86
2022-10-14T15:53:10.106Z,65.01
2022-10-14T15:55:39.102Z,65.11
2022-10-14T15:58:08.819Z,65.15
2022-10-14T16:00:37.656Z,65.28
2022-10-14T16:03:09.897Z,65.38
2022-10-14T16:05:39.364Z,65.52
2022-10-14T16:08:13.567Z,65.67
2022-10-14T16:10:44.498Z,65.68
2022-10-14T16:13:13.694Z,65.81
2022-10-14T16:15:46.462Z,66.05
2022-10-14T16:18:15.095Z,66.12
2022-10-14T16:20:43.973Z,66.26
2022-10-14T16:23:16.181Z,66.28
2022-10-14T16:25:46.735Z,66.41
2022-10-14T16:28:18.857Z,66.53
2022-10-14T16:30:50.548Z,66.59
2022-10-14T16:33:21.593Z,66.58
2022-10-14T16:35:53.076Z,66.77
2022-10-14T16:38:22.446Z,66.80
2022-10-14T16:40:55.628Z,66.79
2022-10-14T16:43:24.692Z,66.98
2022-10-14T16:45:56.884Z,67.00
2022-10-14T16:48:26.208Z,67.08
2022-10-14T16:50:55.582Z,67.22
2022-10-14T16:53:48.307Z,67.22
2022-10-14T16:56:37.335Z,67.43
2022-10-14T16:59:07.784Z,67.51
2022-10-14T17:01:36.695Z,67.60
2022-10-14T17:04:06.581Z,67.67
2022-10-14T17:06:35.286Z,67.77
2022-10-14T17:09:06.496Z,67.91
2022-10-14T17:11:35.341Z,67.99
2022-10-14T17:14:04.035Z,68.04
2022-10-14T17:16:33.186Z,68.06
2022-10-14T17:19:01.884Z,68.21
2022-10-14T17:21:30.562Z,68.38
2022-10-14T17:24:01.309Z,68.42
2022-10-14T17:26:31.921Z,68.59
2022-10-14T17:29:00.993Z,68.66
2022-10-14T17:31:29.916Z,68.71
2022-10-14T17:34:00.314Z,68.80
2022-10-14T17:36:30.511Z,69.05
2022-10-14T17:38:59.594Z,69.15
2022-10-14T17:41:29.633Z,69.14
2022-10-14T17:44:00.795Z,69.23
2022-10-14T17:46:33.731Z,69.35
2022-10-14T17:49:05.356Z,69.45
2022-10-14T17:51:38.255Z,69.68
2022-10-14T17:54:11.418Z,69.84
2022-10-14T17:56:40.522Z,69.85
2022-10-14T17:59:13.420Z,70.02
2022-10-14T18:04:31.836Z,70.32
2022-10-14T18:07:00.547Z,70.49
2022-10-14T18:09:29.354Z,70.54
2022-10-14T18:12:13.584Z,70.78
2022-10-14T18:14:42.586Z,70.98
2022-10-14T18:17:12.037Z,71.31
2022-10-14T18:19:41.667Z,71.19
2022-10-14T18:22:11.006Z,71.47
2022-10-14T18:24:39.857Z,71.44
2022-10-14T18:27:08.524Z,71.58
2022-10-14T18:29:37.316Z,71.54
2022-10-14T18:32:06.224Z,71.68
2022-10-14T18:34:37.828Z,71.95
2022-10-14T18:37:06.987Z,72.06
2022-10-14T18:39:35.646Z,72.11
2022-10-14T18:42:04.631Z,72.23
2022-10-14T18:44:33.442Z,72.34
2022-10-14T18:47:02.294Z,72.38
2022-10-14T18:49:31.463Z,72.58
2022-10-14T18:52:00.139Z,72.70
2022-10-14T18:54:29.600Z,73.06
2022-10-14T18:56:59.054Z,73.12
2022-10-14T18:59:28.785Z,73.15
2022-10-14T19:01:57.633Z,73.44
2022-10-14T19:04:26.833Z,73.49
2022-10-14T19:06:55.593Z,73.40
2022-10-14T19:09:28.911Z,73.48
2022-10-14T19:11:58.832Z,73.55
2022-10-14T19:14:28.708Z,73.61
2022-10-14T19:16:57.543Z,73.81
2022-10-14T19:19:26.202Z,73.69
2022-10-14T19:21:58.919Z,73.94
2022-10-14T19:24:28.140Z,74.00
2022-10-14T19:26:57.072Z,74.06
2022-10-14T19:29:26.478Z,74.13
2022-10-14T19:31:55.397Z,74.03
2022-10-14T19:34:27.063Z,74.25
2022-10-14T19:36:56.181Z,74.27
2022-10-14T19:39:25.009Z,74.33
2022-10-14T19:41:53.860Z,74.55
2022-10-14T19:44:22.528Z,74.42
2022-10-14T19:46:51.522Z,74.56
2022-10-14T19:49:20.397Z,74.55
2022-10-14T19:51:49.176Z,74.60
2022-10-14T19:54:18.306Z,74.55
2022-10-14T19:56:47.013Z,74.72
2022-10-14T19:59:15.697Z,74.76
2022-10-14T20:01:44.342Z,74.90
2022-10-14T20:04:13.482Z,74.93
2022-10-14T20:06:43.216Z,75.09
2022-10-14T20:09:14.016Z,75.05
2022-10-14T20:11:43.136Z,75.25
2022-10-14T20:14:11.834Z,75.25
2022-10-14T20:16:40.658Z,75.32
2022-10-14T20:19:09.608Z,75.42
2022-10-14T20:21:38.273Z,75.52
2022-10-14T20:24:07.854Z,75.54
2022-10-14T20:26:37.220Z,75.73
2022-10-14T20:29:06.135Z,75.71
2022-10-14T20:31:34.796Z,75.75
2022-10-14T20:34:06.020Z,75.89
2022-10-14T20:36:37.360Z,76.02
2022-10-14T20:39:06.106Z,76.07
2022-10-14T20:41:35.446Z,76.19
2022-10-14T20:44:04.180Z,76.24
2022-10-14T20:46:33.159Z,76.40
2022-10-14T20:49:01.897Z,76.60
2022-10-14T20:51:30.617Z,76.74
2022-10-14T20:54:03.975Z,76.80
2022-10-14T20:56:34.539Z,76.95
2022-10-14T20:59:06.749Z,77.03
2022-10-14T21:01:36.739Z,77.05
2022-10-14T21:04:07.278Z,77.24
2022-10-14T21:06:38.119Z,77.46
2022-10-14T21:09:07.391Z,77.53
2022-10-14T21:11:36.131Z,77.61
2022-10-14T21:14:05.036Z,77.82
2022-10-14T21:16:35.721Z,77.82
2022-10-14T21:19:06.693Z,77.97
2022-10-14T21:21:38.299Z,78.14
2022-10-14T21:24:08.463Z,78.49
2022-10-14T21:26:37.160Z,78.49
2022-10-14T21:29:07.842Z,78.79
2022-10-14T21:31:37.141Z,78.77
2022-10-14T21:34:06.747Z,78.95
2022-10-14T21:36:36.096Z,79.06
2022-10-14T21:39:07.178Z,79.25
2022-10-14T21:41:36.577Z,79.27
2022-10-14T21:44:06.453Z,79.43
2022-10-14T21:46:36.296Z,79.60
2022-10-14T21:49:05.403Z,79.66
2022-10-14T21:51:34.014Z,79.75
2022-10-14T21:54:03.512Z,80.02
2022-10-14T21:56:32.855Z,79.91
2022-10-14T21:59:01.645Z,80.06
2022-10-14T22:01:30.846Z,80.08
2022-10-14T22:04:03.159Z,80.12
2022-10-14T22:06:33.476Z,80.30
2022-10-14T22:09:04.883Z,80.38
2022-10-14T22:11:35.265Z,80.50
2022-10-14T22:14:06.582Z,80.67
2022-10-14T22:16:35.932Z,80.69
2022-10-14T22:19:06.410Z,80.86
2022-10-14T22:21:37.747Z,80.86
2022-10-14T22:26:42.354Z,81.06
2022-10-14T22:29:14.375Z,81.18
2022-10-14T22:31:43.625Z,81.30
2022-10-14T22:34:14.493Z,81.61
2022-10-14T22:36:43.277Z,81.96
2022-10-14T22:39:14.983Z,81.76
2022-10-14T22:41:43.854Z,81.83
2022-10-14T22:44:12.510Z,81.88
2022-10-14T22:46:41.382Z,82.08
2022-10-14T22:49:10.196Z,82.30
2022-10-14T22:51:40.917Z,82.21
2022-10-14T22:54:10.288Z,82.39
2022-10-14T22:56:39.054Z,82.55
2022-10-14T22:59:10.421Z,82.59
2022-10-14T23:01:40.244Z,82.54
2022-10-14T23:04:09.514Z,82.71
2022-10-14T23:06:43.102Z,82.61
2022-10-14T23:09:11.900Z,82.74
2022-10-14T23:11:40.627Z,82.78
2022-10-14T23:14:09.613Z,82.91
2022-10-14T23:16:39.663Z,82.90
2022-10-14T23:19:08.385Z,83.01
2022-10-14T23:21:38.143Z,83.11
2022-10-14T23:24:11.232Z,83.19
2022-10-14T23:26:40.049Z,83.17
2022-10-14T23:29:11.369Z,83.22
2022-10-14T23:31:40.315Z,83.41
2022-10-14T23:34:12.703Z,83.58
2022-10-14T23:36:41.875Z,83.66
2022-10-14T23:39:10.731Z,83.73
2022-10-14T23:41:39.901Z,83.68
2022-10-14T23:44:09.710Z,83.74
2022-10-14T23:46:38.286Z,83.75
2022-10-14T23:49:24.578Z,83.77
2022-10-14T23:51:55.037Z,83.84
2022-10-14T23:54:23.883Z,83.94
2022-10-14T23:56:52.679Z,83.94
2022-10-14T23:59:21.305Z,84.03
